Time;durP1;ratioP1;P1;durP2;ratioP2;P2;SDS_P1;SDS_P2;PMS_P1;PMS_P2;Temp;Humidity;BMP_temperature;BMP_pressure;BME280_temperature;BME280_humidity;BME280_pressure;Samples;Min_cycle;Max_cycle;Signal;HPM_P1;HPM_P2
2022/05/08 00:01:05;;;;;;;13.13;3.72;;;7.90;99.90;;;;;;5013738;28;20057;-63
2022/05/08 00:03:31;;;;;;;13.00;3.80;;;7.60;99.90;;;;;;5013489;28;20037;-63
2022/05/08 00:05:59;;;;;;;13.45;3.92;;;;;;;;;;5014620;28;20044;-63
2022/05/08 00:08:25;;;;;;;14.48;4.50;;;;;;;;;;5013318;28;20144;-63
2022/05/08 00:10:50;;;;;;;14.60;4.00;;;7.80;99.90;;;;;;5014181;28;20037;-63
2022/05/08 00:13:16;;;;;;;16.58;4.40;;;;;;;;;;4980212;28;20038;-63
2022/05/08 00:15:42;;;;;;;16.75;5.18;;;7.80;99.90;;;;;;5014063;28;20420;-63
2022/05/08 00:18:08;;;;;;;14.23;4.00;;;7.90;99.90;;;;;;4996477;28;20056;-63
2022/05/08 00:20:33;;;;;;;11.73;3.42;;;7.70;99.90;;;;;;4980463;28;20041;-63
2022/05/08 00:22:59;;;;;;;15.13;4.03;;;7.80;99.90;;;;;;5014578;28;20121;-62
2022/05/08 00:25:26;;;;;;;15.10;4.22;;;7.60;99.90;;;;;;5014554;28;20046;-62
2022/05/08 00:27:52;;;;;;;13.30;4.22;;;7.60;99.90;;;;;;4996663;28;20611;-62
2022/05/08 00:30:17;;;;;;;13.15;3.95;;;7.50;99.90;;;;;;5013807;28;20113;-62
2022/05/08 00:32:43;;;;;;;18.38;4.35;;;;;;;;;;5013800;28;20042;-63
2022/05/08 00:35:10;;;;;;;15.35;4.45;;;7.50;99.90;;;;;;5014290;28;20092;-63
2022/05/08 00:37:37;;;;;;;15.02;3.85;;;7.50;99.90;;;;;;4996629;28;20109;-62
2022/05/08 00:40:03;;;;;;;13.38;3.78;;;7.40;99.90;;;;;;5016731;28;20030;-63
2022/05/08 00:42:29;;;;;;;14.00;3.72;;;;;;;;;;5017198;28;20092;-63
2022/05/08 00:44:55;;;;;;;9.68;3.30;;;;;;;;;;5017901;28;20042;-62
2022/05/08 00:47:21;;;;;;;9.75;3.33;;;;;;;;;;5000277;28;20042;-62
2022/05/08 00:49:48;;;;;;;11.55;4.00;;;7.50;99.90;;;;;;5017844;28;20124;-62
2022/05/08 00:52:14;;;;;;;10.15;3.33;;;;;;;;;;5000223;28;20060;-63
2022/05/08 00:54:40;;;;;;;11.25;3.60;;;7.50;99.90;;;;;;5017984;28;20042;-62
2022/05/08 00:57:07;;;;;;;10.73;4.03;;;7.40;99.90;;;;;;5000421;28;20041;-62
2022/05/08 00:59:34;;;;;;;10.82;3.90;;;7.30;99.90;;;;;;5017664;28;20046;-63
2022/05/08 01:01:59;;;;;;;15.02;4.05;;;7.40;99.90;;;;;;5018049;28;20034;-63
2022/05/08 01:04:25;;;;;;;8.85;3.00;;;7.10;99.90;;;;;;5000498;28;20507;-62
2022/05/08 01:06:51;;;;;;;14.77;3.42;;;;;;;;;;5017824;28;20100;-62
2022/05/08 01:09:18;;;;;;;11.68;3.33;;;7.20;99.90;;;;;;5017480;28;20104;-62
2022/05/08 01:11:44;;;;;;;16.20;3.92;;;7.20;99.90;;;;;;4999912;28;20046;-62
2022/05/08 01:14:09;;;;;;;12.30;4.15;;;7.10;99.90;;;;;;5017449;28;20128;-62
2022/05/08 01:16:35;;;;;;;5.63;2.75;;;;;;;;;;5000095;28;20100;-62
2022/05/08 01:19:01;;;;;;;15.40;4.70;;;7.00;99.90;;;;;;4999657;28;20103;-63
2022/05/08 01:21:41;;;;;;;16.45;2.50;;;6.80;99.90;;;;;;5000050;28;20085;-62
2022/05/08 01:24:07;;;;;;;2.00;1.33;;;;;;;;;;4999758;28;20034;-62
2022/05/08 01:26:33;;;;;;;4.43;1.83;;;;;;;;;;5016301;28;20053;-62
2022/05/08 01:29:00;;;;;;;7.45;2.72;;;6.80;99.90;;;;;;4999619;28;20050;-62
2022/05/08 01:31:26;;;;;;;9.10;2.63;;;;;;;;;;5017568;28;20042;-62
2022/05/08 01:33:51;;;;;;;7.25;2.28;;;6.70;99.90;;;;;;5000234;28;20168;-62
2022/05/08 01:36:17;;;;;;;5.22;2.13;;;6.70;99.90;;;;;;4999321;28;20129;-62
2022/05/08 01:38:43;;;;;;;9.23;2.63;;;6.60;99.90;;;;;;4999215;28;20077;-62
2022/05/08 01:41:09;;;;;;;7.63;2.83;;;6.50;99.90;;;;;;4999442;28;20072;-62
2022/05/08 01:43:36;;;;;;;9.48;3.33;;;6.60;99.90;;;;;;5017024;28;20042;-62
2022/05/08 01:46:02;;;;;;;6.90;2.55;;;;;;;;;;5017101;28;20041;-62
2022/05/08 01:48:28;;;;;;;7.88;2.72;;;6.60;99.90;;;;;;4999895;28;20069;-62
2022/05/08 01:50:56;;;;;;;7.38;2.83;;;6.50;99.90;;;;;;5017111;28;20034;-62
2022/05/08 01:53:23;;;;;;;4.53;2.42;;;6.60;99.90;;;;;;4999259;28;20188;-62
2022/05/08 01:55:53;;;;;;;5.00;2.17;;;6.60;99.90;;;;;;4983019;28;20065;-62
2022/05/08 01:58:19;;;;;;;7.38;3.00;;;6.50;99.90;;;;;;4997823;28;20050;-62
2022/05/08 02:00:46;;;;;;;3.97;2.58;;;6.50;99.90;;;;;;4997220;28;20112;-63
2022/05/08 02:03:12;;;;;;;5.60;3.00;;;6.40;99.90;;;;;;4979469;28;20042;-62
2022/05/08 02:05:42;;;;;;;5.45;3.03;;;6.50;99.90;;;;;;4997499;28;20088;-62
2022/05/08 02:08:10;;;;;;;4.68;2.40;;;6.60;99.90;;;;;;4964684;28;20121;-62
2022/05/08 02:10:36;;;;;;;4.63;2.38;;;6.40;99.90;;;;;;4997422;28;20046;-62
2022/05/08 02:13:02;;;;;;;9.07;2.85;;;;;;;;;;4979623;28;20096;-62
2022/05/08 02:15:29;;;;;;;5.95;2.72;;;6.20;99.90;;;;;;4979817;28;20051;-62
2022/05/08 02:18:03;;;;;;;16.17;4.05;;;6.40;99.90;;;;;;4997234;28;20046;-62
2022/05/08 02:20:29;;;;;;;14.98;5.15;;;6.20;99.90;;;;;;4979579;28;20053;-62
2022/05/08 02:22:54;;;;;;;11.52;3.97;;;6.40;99.90;;;;;;4980107;28;20047;-62
2022/05/08 02:25:21;;;;;;;10.95;4.30;;;6.20;99.90;;;;;;4980318;28;20042;-62
2022/05/08 02:27:49;;;;;;;18.42;4.20;;;6.20;99.90;;;;;;4997999;28;20042;-62
2022/05/08 02:30:16;;;;;;;9.30;3.30;;;;;;;;;;4997773;28;20045;-63
2022/05/08 02:32:42;;;;;;;9.38;3.25;;;6.10;99.90;;;;;;4996922;28;20042;-63
2022/05/08 02:35:12;;;;;;;12.00;4.03;;;6.20;99.90;;;;;;4996625;28;20515;-63
2022/05/08 02:37:41;;;;;;;9.38;3.13;;;;;;;;;;4996540;28;20034;-62
2022/05/08 02:40:11;;;;;;;5.93;3.13;;;6.20;99.90;;;;;;4996662;28;20042;-63
2022/05/08 02:42:37;;;;;;;4.28;2.45;;;6.10;99.90;;;;;;4996540;28;20088;-62
2022/05/08 02:45:05;;;;;;;6.03;2.83;;;6.10;99.90;;;;;;4981600;28;20081;-62
2022/05/08 02:47:32;;;;;;;6.15;3.38;;;6.10;99.90;;;;;;5015242;28;20064;-62
2022/05/08 02:49:58;;;;;;;7.68;3.40;;;6.10;99.90;;;;;;4999079;28;20049;-63
2022/05/08 02:52:24;;;;;;;8.25;2.88;;;6.10;99.90;;;;;;5016389;28;20034;-63
2022/05/08 02:54:49;;;;;;;9.48;3.05;;;;;;;;;;5016402;28;20428;-62
2022/05/08 03:00:07;;;;;;;6.53;3.38;;;5.90;99.90;;;;;;5015856;28;20041;-62
2022/05/08 03:02:34;;;;;;;8.50;3.55;;;6.00;99.90;;;;;;5015796;28;20046;-62
2022/05/08 03:05:00;;;;;;;10.75;3.47;;;;;;;;;;5015853;28;20049;-62
2022/05/08 03:07:26;;;;;;;12.40;3.45;;;;;;;;;;5015798;28;20042;-62
2022/05/08 03:09:52;;;;;;;7.75;3.03;;;5.80;99.90;;;;;;5015873;28;20037;-62
2022/05/08 03:12:18;;;;;;;14.48;4.03;;;5.70;99.90;;;;;;4997820;28;20045;-62
2022/05/08 03:14:44;;;;;;;13.60;4.10;;;;;;;;;;4997430;28;20054;-62
2022/05/08 03:17:10;;;;;;;9.52;2.65;;;5.50;99.90;;;;;;5014280;28;20069;-62
2022/05/08 03:19:36;;;;;;;11.35;3.67;;;5.70;99.90;;;;;;4997525;28;20038;-62
2022/05/08 03:22:02;;;;;;;4.00;1.83;;;5.70;99.90;;;;;;5015414;28;20068;-62
2022/05/08 03:24:29;;;;;;;4.85;1.52;;;5.80;99.90;;;;;;5015728;28;20042;-62
2022/05/08 03:26:55;;;;;;;5.95;1.60;;;;;;;;;;5014046;28;20037;-62
2022/05/08 03:29:20;;;;;;;4.80;1.25;;;5.50;99.90;;;;;;5015351;28;20053;-62
2022/05/08 03:31:46;;;;;;;11.50;1.60;;;5.60;99.90;;;;;;5015380;28;20034;-62
2022/05/08 03:34:12;;;;;;;2.03;1.33;;;5.30;99.90;;;;;;5014127;28;20121;-62
2022/05/08 03:36:38;;;;;;;3.50;1.77;;;;;;;;;;4997780;28;20030;-62
2022/05/08 03:39:04;;;;;;;7.03;2.05;;;;;;;;;;5015609;28;20046;-62
2022/05/08 03:41:29;;;;;;;2.78;1.50;;;5.40;99.90;;;;;;5014033;28;20065;-62
2022/05/08 03:43:56;;;;;;;4.60;2.33;;;;;;;;;;4997909;28;20037;-62
2022/05/08 03:46:22;;;;;;;3.67;2.50;;;;;;;;;;5015001;28;20496;-62
2022/05/08 03:48:48;;;;;;;3.05;1.70;;;5.50;99.90;;;;;;5014676;28;20125;-62
2022/05/08 03:51:14;;;;;;;2.90;1.77;;;;;;;;;;5015081;28;20164;-62
2022/05/08 03:53:39;;;;;;;2.35;1.88;;;5.40;99.90;;;;;;5014982;28;20045;-62
2022/05/08 03:56:05;;;;;;;2.58;1.92;;;;;;;;;;4980833;28;20474;-62
2022/05/08 03:58:31;;;;;;;2.30;1.70;;;;;;;;;;5014955;28;20103;-62
2022/05/08 04:00:57;;;;;;;1.80;1.63;;;;;;;;;;5014892;28;20451;-62
2022/05/08 04:03:23;;;;;;;3.28;1.50;;;5.20;99.90;;;;;;5015098;28;20041;-62
2022/05/08 04:05:48;;;;;;;1.48;1.38;;;5.30;99.90;;;;;;4997954;28;20056;-62
2022/05/08 04:08:14;;;;;;;5.85;1.67;;;5.20;99.90;;;;;;5014733;28;20097;-62
2022/05/08 04:10:39;;;;;;;1.42;1.33;;;5.00;99.90;;;;;;5015219;28;20041;-62
2022/05/08 04:13:05;;;;;;;1.85;1.55;;;;;;;;;;4997452;28;20142;-63
2022/05/08 04:18:15;;;;;;;9.57;3.03;;;5.00;99.90;;;;;;4997656;28;20046;-62
2022/05/08 04:20:41;;;;;;;6.88;2.08;;;;;;;;;;5015483;28;20038;-62
2022/05/08 04:25:53;;;;;;;6.75;2.30;;;5.10;99.90;;;;;;4997436;28;20443;-62
2022/05/08 04:28:22;;;;;;;9.48;3.17;;;;;;;;;;5014652;28;20034;-62
2022/05/08 04:30:49;;;;;;;5.03;2.15;;;5.50;99.90;;;;;;4997320;28;20048;-62
2022/05/08 04:33:15;;;;;;;6.53;2.63;;;5.60;99.90;;;;;;5013955;28;20381;-62
2022/05/08 04:35:41;;;;;;;2.00;1.45;;;5.70;99.90;;;;;;5012982;28;20052;-62
2022/05/08 04:38:07;;;;;;;2.60;1.70;;;;;;;;;;4996249;28;20042;-62
2022/05/08 04:40:33;;;;;;;5.75;2.33;;;5.70;99.90;;;;;;4996727;28;20042;-62
2022/05/08 04:42:58;;;;;;;4.65;2.15;;;5.80;99.90;;;;;;5014110;28;20042;-62
2022/05/08 04:45:24;;;;;;;5.70;2.47;;;5.70;99.90;;;;;;5014150;28;20138;-62
2022/05/08 04:47:49;;;;;;;5.70;2.60;;;5.70;99.90;;;;;;4996658;28;20085;-62
2022/05/08 04:50:15;;;;;;;5.45;2.85;;;5.60;99.90;;;;;;4996409;28;20050;-62
2022/05/08 04:52:41;;;;;;;5.55;3.00;;;;;;;;;;4995412;28;20046;-63
2022/05/08 04:55:07;;;;;;;7.93;2.65;;;5.70;99.90;;;;;;5013402;28;20080;-63
2022/05/08 04:57:32;;;;;;;8.55;2.20;;;5.60;99.90;;;;;;5013234;28;20400;-63
2022/05/08 04:59:58;;;;;;;4.53;2.03;;;5.80;99.90;;;;;;4995440;28;20125;-64
2022/05/08 05:02:24;;;;;;;7.88;2.42;;;;;;;;;;5012997;28;20042;-64
2022/05/08 05:04:50;;;;;;;8.50;2.95;;;6.10;99.90;;;;;;5012846;28;20504;-64
2022/05/08 05:07:16;;;;;;;14.57;3.53;;;6.10;99.90;;;;;;5011972;28;20121;-64
2022/05/08 05:09:42;;;;;;;12.50;3.15;;;6.20;99.90;;;;;;5011599;28;20046;-64
2022/05/08 05:12:08;;;;;;;9.80;3.58;;;6.40;99.90;;;;;;5012916;28;20038;-64
2022/05/08 05:14:34;;;;;;;13.27;4.28;;;;;;;;;;5011492;28;20054;-64
2022/05/08 05:17:00;;;;;;;12.48;4.05;;;6.50;99.90;;;;;;4995249;28;20049;-64
2022/05/08 05:19:29;;;;;;;9.52;3.33;;;6.50;99.90;;;;;;5012769;28;20050;-64
2022/05/08 05:21:55;;;;;;;15.77;4.13;;;6.60;99.90;;;;;;5009628;28;20046;-64
2022/05/08 05:24:20;;;;;;;13.07;3.67;;;6.80;99.90;;;;;;5011399;28;20068;-64
2022/05/08 05:26:46;;;;;;;14.23;4.25;;;7.10;99.90;;;;;;4998267;28;20048;-64
2022/05/08 05:29:11;;;;;;;15.05;4.20;;;7.10;99.90;;;;;;5016942;28;20050;-64
2022/05/08 05:31:37;;;;;;;11.13;4.20;;;7.10;99.90;;;;;;5016486;28;20066;-64
2022/05/08 05:34:02;;;;;;;13.73;4.47;;;7.30;99.90;;;;;;5013255;28;20053;-64
2022/05/08 05:36:28;;;;;;;13.98;4.35;;;7.50;99.90;;;;;;5013623;28;20120;-64
2022/05/08 05:38:54;;;;;;;11.68;3.65;;;8.00;99.90;;;;;;5010275;28;20120;-64
2022/05/08 05:41:19;;;;;;;13.68;4.68;;;;;;;;;;4992109;28;20042;-64
2022/05/08 05:43:45;;;;;;;8.93;3.75;;;;;;;;;;5011053;28;20056;-64
2022/05/08 05:48:56;;;;;;;8.13;3.27;;;;;;;;;;5011136;28;20045;-64
2022/05/08 05:51:22;;;;;;;12.00;3.35;;;;;;;;;;5010096;28;20045;-64
2022/05/08 05:53:48;;;;;;;13.25;3.33;;;9.40;99.90;;;;;;4978349;28;20034;-64
2022/05/08 05:56:13;;;;;;;9.82;2.92;;;;;;;;;;4994869;28;20550;-64
2022/05/08 05:58:39;;;;;;;9.32;3.28;;;;;;;;;;5011569;28;20049;-64
2022/05/08 06:01:05;;;;;;;12.27;3.63;;;;;;;;;;5013813;28;20049;-64
2022/05/08 06:03:32;;;;;;;11.50;3.67;;;10.40;99.90;;;;;;5015755;28;20038;-64
2022/05/08 06:05:58;;;;;;;11.32;3.28;;;10.90;99.90;;;;;;4998197;28;20104;-64
2022/05/08 06:08:23;;;;;;;13.40;3.58;;;11.50;99.90;;;;;;5014337;28;20077;-65
2022/05/08 06:10:50;;;;;;;7.63;3.15;;;11.40;99.90;;;;;;5015703;28;20149;-65
2022/05/08 06:13:15;;;;;;;10.13;3.10;;;11.90;99.90;;;;;;5015423;28;20538;-64
2022/05/08 06:15:41;;;;;;;11.90;2.80;;;12.30;99.90;;;;;;5014751;28;20053;-65
2022/05/08 06:18:07;;;;;;;11.70;3.38;;;12.50;99.90;;;;;;4977308;28;20105;-65
2022/05/08 06:20:32;;;;;;;7.47;2.20;;;12.70;99.90;;;;;;4995095;28;20061;-65
2022/05/08 06:22:58;;;;;;;10.82;2.78;;;12.80;99.90;;;;;;4996063;28;20065;-65
2022/05/08 06:25:24;;;;;;;10.50;2.38;;;12.90;99.90;;;;;;4992168;28;20070;-65
2022/05/08 06:27:50;;;;;;;8.00;2.58;;;13.10;99.90;;;;;;4993455;28;20526;-65
2022/05/08 06:30:15;;;;;;;14.55;3.35;;;12.90;99.90;;;;;;4998120;28;20116;-65
2022/05/08 06:32:41;;;;;;;9.88;2.25;;;12.70;99.90;;;;;;4998028;28;20156;-65
2022/05/08 06:35:07;;;;;;;12.00;2.50;;;12.60;99.90;;;;;;4997489;28;20034;-65
2022/05/08 06:37:32;;;;;;;10.25;2.65;;;12.50;99.90;;;;;;5011363;28;20048;-65
2022/05/08 06:39:58;;;;;;;7.63;2.75;;;;;;;;;;5011703;28;20046;-66
2022/05/08 06:42:24;;;;;;;8.68;2.85;;;12.60;99.90;;;;;;5014303;28;20100;-66
2022/05/08 06:44:49;;;;;;;11.90;2.58;;;12.50;99.90;;;;;;5013681;28;20045;-65
2022/05/08 06:47:15;;;;;;;10.30;2.55;;;12.40;99.90;;;;;;5014506;28;20037;-65
2022/05/08 06:49:40;;;;;;;13.85;2.50;;;12.40;99.90;;;;;;4997386;28;20041;-65
2022/05/08 06:52:06;;;;;;;10.23;3.03;;;;;;;;;;4997580;28;20046;-64
2022/05/08 06:54:32;;;;;;;8.77;2.85;;;12.10;99.90;;;;;;4996899;28;20496;-65
2022/05/08 06:56:59;;;;;;;6.20;2.40;;;12.30;99.90;;;;;;4997168;28;20175;-65
2022/05/08 07:02:11;;;;;;;10.65;2.55;;;12.00;99.90;;;;;;5014951;28;20045;-66
2022/05/08 07:04:40;;;;;;;6.63;2.10;;;12.00;99.90;;;;;;5014790;28;20046;-65
2022/05/08 07:07:06;;;;;;;10.07;2.88;;;12.20;99.90;;;;;;5008551;28;20060;-66
2022/05/08 07:09:32;;;;;;;5.95;2.30;;;;;;;;;;4983345;28;20053;-65
2022/05/08 07:11:58;;;;;;;8.30;2.20;;;12.00;99.90;;;;;;4969676;28;20045;-64
2022/05/08 07:14:24;;;;;;;9.18;2.55;;;12.10;99.90;;;;;;4996766;28;20050;-64
2022/05/08 07:16:49;;;;;;;8.43;2.00;;;12.10;99.90;;;;;;4977469;28;20056;-64
2022/05/08 07:19:15;;;;;;;8.93;2.20;;;12.10;99.90;;;;;;4994912;28;20038;-64
2022/05/08 07:21:41;;;;;;;9.65;2.30;;;12.00;99.90;;;;;;4978290;28;20034;-65
2022/05/08 07:24:07;;;;;;;12.40;2.28;;;12.00;99.90;;;;;;4993767;28;20053;-65
2022/05/08 07:26:32;;;;;;;9.48;2.22;;;12.10;99.90;;;;;;4990999;28;20042;-65
2022/05/08 07:28:58;;;;;;;10.70;2.42;;;;;;;;;;4976453;28;20452;-65
2022/05/08 07:31:25;;;;;;;7.75;1.80;;;;;;;;;;4993149;28;20039;-65
2022/05/08 07:36:12;;;;;;;6.57;2.53;;;11.90;99.90;;;;;;4980151;28;20034;-65
2022/05/08 07:36:36;;;;;;;13.07;2.60;;;;;;;;;;4993222;28;20042;-64
2022/05/08 07:39:02;;;;;;;8.30;2.10;;;;;;;;;;4988838;28;20097;-65
2022/05/08 07:41:29;;;;;;;7.68;1.92;;;12.00;99.90;;;;;;4989577;28;20080;-65
2022/05/08 07:43:54;;;;;;;4.65;1.85;;;12.00;99.90;;;;;;4972732;28;20042;-66
2022/05/08 07:46:20;;;;;;;7.28;2.50;;;12.00;99.90;;;;;;5001730;28;20038;-66
2022/05/08 07:48:45;;;;;;;7.07;2.47;;;12.00;99.90;;;;;;4976225;28;20054;-66
2022/05/08 07:51:11;;;;;;;7.80;2.33;;;12.20;99.90;;;;;;4992762;28;20840;-65
2022/05/08 07:53:37;;;;;;;10.30;2.08;;;12.10;99.90;;;;;;5010080;28;20083;-66
2022/05/08 07:56:03;;;;;;;12.35;2.10;;;12.00;99.90;;;;;;4992416;28;20042;-65
2022/05/08 07:58:31;;;;;;;6.68;2.13;;;12.30;99.90;;;;;;4976796;28;20044;-66
2022/05/08 08:00:57;;;;;;;7.10;2.60;;;;;;;;;;4992426;28;20098;-65
2022/05/08 08:03:25;;;;;;;10.43;2.42;;;12.20;99.90;;;;;;4992534;28;20083;-65
2022/05/08 08:05:54;;;;;;;8.13;1.90;;;12.40;99.90;;;;;;4992385;28;20100;-66
2022/05/08 08:08:25;;;;;;;6.28;1.95;;;12.50;99.90;;;;;;5009720;28;20385;-65
2022/05/08 08:10:58;;;;;;;6.38;1.65;;;12.60;99.90;;;;;;5009968;28;20048;-65
2022/05/08 08:13:26;;;;;;;7.90;2.38;;;12.50;99.90;;;;;;4992413;28;20042;-65
2022/05/08 08:15:52;;;;;;;5.30;2.25;;;12.70;99.90;;;;;;5007832;28;20061;-65
2022/05/08 08:18:18;;;;;;;6.10;2.13;;;;;;;;;;4992389;28;20034;-63
2022/05/08 08:20:45;;;;;;;5.20;1.70;;;;;;;;;;5006512;28;20053;-65
2022/05/08 08:23:10;;;;;;;7.75;2.42;;;13.00;99.90;;;;;;5008389;28;20515;-64
2022/05/08 08:25:37;;;;;;;6.72;2.00;;;12.90;99.90;;;;;;5006166;28;20053;-63
2022/05/08 08:28:03;;;;;;;9.52;2.20;;;;;;;;;;5010513;28;20065;-64
2022/05/08 08:30:28;;;;;;;6.65;2.03;;;13.00;99.90;;;;;;4988946;28;20054;-64
2022/05/08 08:32:55;;;;;;;7.80;2.10;;;;;;;;;;4989966;28;20076;-65
2022/05/08 08:35:21;;;;;;;6.68;1.98;;;;;;;;;;5002336;28;20046;-64
2022/05/08 08:37:46;;;;;;;11.00;2.38;;;13.20;99.90;;;;;;4999031;28;20046;-64
2022/05/08 08:40:12;;;;;;;8.35;3.15;;;;;;;;;;5008551;28;20564;-65
2022/05/08 08:42:42;;;;;;;7.18;2.00;;;13.20;99.90;;;;;;5008647;28;20484;-65
2022/05/08 08:47:54;;;;;;;8.48;1.90;;;13.30;99.90;;;;;;4971948;28;20141;-65
2022/05/08 08:50:24;;;;;;;9.18;2.20;;;13.30;99.90;;;;;;4971955;28;20042;-66
2022/05/08 08:52:50;;;;;;;7.35;2.40;;;;;;;;;;4956069;28;20046;-64
2022/05/08 08:55:17;;;;;;;7.43;1.98;;;13.50;99.90;;;;;;4973014;28;20042;-65
2022/05/08 08:57:44;;;;;;;10.23;2.00;;;13.50;99.90;;;;;;4992073;28;20042;-66
2022/05/08 09:00:09;;;;;;;8.93;2.13;;;13.70;99.90;;;;;;5009645;28;20040;-65
2022/05/08 09:02:35;;;;;;;12.07;2.60;;;13.50;99.90;;;;;;5014969;28;20113;-65
2022/05/08 09:05:07;;;;;;;11.50;2.88;;;13.70;99.90;;;;;;5015746;28;20046;-65
2022/05/08 09:07:38;;;;;;;13.18;2.60;;;13.70;99.90;;;;;;5009456;28;20522;-64
2022/05/08 09:10:10;;;;;;;9.77;2.40;;;14.00;99.90;;;;;;4995549;28;20488;-65
2022/05/08 09:12:37;;;;;;;13.63;2.17;;;13.90;99.90;;;;;;5000727;28;20476;-65
2022/05/08 09:15:20;;;;;;;7.35;2.17;;;14.00;99.90;;;;;;4969807;28;20047;-65
2022/05/08 09:17:48;;;;;;;7.28;2.30;;;13.90;99.90;;;;;;5003611;28;20511;-64
2022/05/08 09:20:33;;;;;;;8.10;2.78;;;13.80;99.90;;;;;;4999865;28;20395;-66
2022/05/08 09:23:25;;;;;;;5.13;1.73;;;13.90;99.90;;;;;;4996183;28;20035;-65
2022/05/08 09:25:55;;;;;;;8.43;1.80;;;13.60;99.90;;;;;;4976757;28;20054;-66
2022/05/08 09:28:21;;;;;;;5.22;1.77;;;13.80;99.90;;;;;;4995899;28;20101;-66
2022/05/08 09:31:05;;;;;;;7.63;2.78;;;13.90;99.90;;;;;;4996045;28;20046;-66
2022/05/08 09:33:31;;;;;;;9.82;2.08;;;;;;;;;;4994506;28;20121;-65
2022/05/08 09:36:03;;;;;;;9.57;2.10;;;14.10;99.90;;;;;;4995714;28;20092;-66
2022/05/08 09:38:50;;;;;;;7.07;2.38;;;14.30;99.90;;;;;;4995894;28;20401;-67
2022/05/08 09:41:23;;;;;;;6.80;1.70;;;14.40;99.90;;;;;;4994853;28;20046;-65
2022/05/08 09:43:51;;;;;;;6.63;2.00;;;14.60;99.90;;;;;;5013706;28;20046;-66
2022/05/08 09:46:17;;;;;;;8.73;2.17;;;14.50;99.90;;;;;;5001133;28;20037;-66
2022/05/08 09:48:43;;;;;;;11.57;1.95;;;14.70;99.90;;;;;;4997285;28;20057;-66
2022/05/08 09:51:10;;;;;;;9.05;2.10;;;14.80;99.90;;;;;;5010643;28;20416;-68
2022/05/08 09:53:38;;;;;;;7.78;2.25;;;14.50;99.90;;;;;;4997282;28;20042;-66
2022/05/08 09:56:06;;;;;;;8.30;1.73;;;14.70;99.90;;;;;;5011561;28;20037;-68
2022/05/08 09:58:32;;;;;;;8.82;2.35;;;14.70;99.90;;;;;;5015843;28;20542;-68
2022/05/08 10:00:58;;;;;;;10.55;1.92;;;14.70;99.90;;;;;;5015925;28;20048;-68
2022/05/08 10:03:25;;;;;;;6.07;2.05;;;14.70;99.90;;;;;;5002351;28;20026;-65
2022/05/08 10:05:51;;;;;;;8.43;2.17;;;14.90;99.90;;;;;;4996306;28;20088;-66
2022/05/08 10:08:22;;;;;;;11.02;3.25;;;15.00;99.90;;;;;;5010899;28;20034;-66
2022/05/08 10:13:56;;;;;;;8.63;1.95;;;15.20;99.90;;;;;;5014717;28;20050;-66
2022/05/08 10:16:50;;;;;;;10.35;2.50;;;15.30;99.90;;;;;;5014654;28;20049;-66
2022/05/08 10:19:19;;;;;;;6.50;1.98;;;15.40;99.90;;;;;;4997959;28;20129;-66
2022/05/08 10:22:02;;;;;;;9.85;2.05;;;15.50;99.90;;;;;;4998103;28;20112;-66
2022/05/08 10:24:32;;;;;;;11.13;2.05;;;15.60;99.90;;;;;;4997742;28;20057;-66
2022/05/08 10:27:19;;;;;;;13.60;2.30;;;15.60;99.90;;;;;;5014188;28;20080;-66
2022/05/08 10:29:50;;;;;;;10.82;1.90;;;15.70;99.90;;;;;;5015097;28;20092;-66
2022/05/08 10:32:28;;;;;;;7.50;2.58;;;15.60;99.90;;;;;;4997596;28;20041;-66
2022/05/08 10:35:10;;;;;;;11.38;2.78;;;15.40;99.90;;;;;;4997587;28;20042;-66
2022/05/08 10:37:46;;;;;;;9.20;1.63;;;15.70;99.90;;;;;;5014033;28;20092;-66
2022/05/08 10:40:38;;;;;;;8.40;2.22;;;15.80;99.90;;;;;;4997767;28;20053;-66
2022/05/08 10:43:12;;;;;;;8.35;1.92;;;15.80;99.90;;;;;;5011423;28;20512;-66
2022/05/08 10:45:41;;;;;;;15.98;2.45;;;15.80;99.90;;;;;;4996852;28;20049;-66
2022/05/08 10:48:07;;;;;;;7.13;2.25;;;15.80;99.90;;;;;;5013314;28;20485;-66
2022/05/08 10:50:34;;;;;;;10.30;2.03;;;15.90;99.90;;;;;;4997521;28;20494;-66
2022/05/08 10:53:00;;;;;;;9.15;1.90;;;15.70;99.90;;;;;;5013524;28;20049;-66
2022/05/08 10:55:27;;;;;;;10.98;2.03;;;15.70;99.90;;;;;;5015127;28;20038;-66
2022/05/08 10:57:54;;;;;;;7.13;1.80;;;15.70;99.90;;;;;;5014807;28;20400;-66
2022/05/08 11:00:23;;;;;;;10.35;2.03;;;15.80;99.90;;;;;;5014801;28;20341;-66
2022/05/08 11:02:54;;;;;;;9.02;2.03;;;15.80;99.90;;;;;;5014597;28;20038;-66
2022/05/08 11:05:33;;;;;;;8.88;2.08;;;15.70;99.90;;;;;;5014896;28;20552;-66
2022/05/08 11:08:00;;;;;;;7.35;1.77;;;15.80;99.90;;;;;;5014758;28;20034;-66
2022/05/08 11:10:31;;;;;;;5.50;1.38;;;15.60;99.90;;;;;;4996914;28;20046;-66
2022/05/08 11:13:00;;;;;;;10.77;2.20;;;15.90;99.90;;;;;;5014626;28;20038;-66
2022/05/08 11:15:36;;;;;;;9.00;1.85;;;15.90;99.90;;;;;;5014386;28;20128;-66
2022/05/08 11:18:15;;;;;;;10.60;2.47;;;16.00;99.90;;;;;;5013588;28;20057;-66
2022/05/08 11:20:48;;;;;;;19.50;2.85;;;16.00;99.90;;;;;;4996719;28;20583;-66
2022/05/08 11:23:15;;;;;;;10.30;1.73;;;16.00;99.90;;;;;;5014092;28;20044;-66
2022/05/08 11:25:44;;;;;;;11.60;2.45;;;16.10;99.90;;;;;;5014397;28;20042;-66
2022/05/08 11:28:14;;;;;;;7.07;1.90;;;15.80;99.90;;;;;;5013967;28;20499;-65
2022/05/08 11:30:40;;;;;;;5.10;1.60;;;15.80;99.90;;;;;;5013243;28;20041;-66
2022/05/08 11:36:06;;;;;;;8.20;1.75;;;15.80;99.90;;;;;;4996637;28;20074;-66
2022/05/08 11:38:45;;;;;;;8.45;2.78;;;15.70;99.90;;;;;;5013008;28;20054;-66
2022/05/08 11:41:15;;;;;;;8.18;1.92;;;15.70;99.90;;;;;;5013007;28;20049;-66
2022/05/08 11:43:45;;;;;;;6.75;1.60;;;15.70;99.90;;;;;;4996367;28;20045;-66
2022/05/08 11:46:15;;;;;;;7.75;1.80;;;15.70;99.90;;;;;;5014306;28;20349;-66
2022/05/08 11:48:46;;;;;;;9.15;2.10;;;15.80;99.90;;;;;;5012812;28;20042;-66
2022/05/08 11:51:13;;;;;;;6.88;1.65;;;15.90;99.90;;;;;;5012570;28;20095;-66
2022/05/08 11:53:50;;;;;;;6.40;2.00;;;15.80;99.90;;;;;;4996131;28;20069;-66
2022/05/08 11:56:19;;;;;;;9.98;2.03;;;15.80;99.90;;;;;;4996353;28;20042;-66
2022/05/08 11:58:47;;;;;;;10.63;2.15;;;15.80;99.90;;;;;;4996161;28;20100;-66
2022/05/08 12:01:28;;;;;;;7.40;1.65;;;15.80;99.90;;;;;;4996403;28;20049;-66
2022/05/08 12:03:55;;;;;;;6.55;1.80;;;15.80;99.90;;;;;;5012437;28;20117;-66
2022/05/08 12:06:21;;;;;;;9.43;2.35;;;15.90;99.90;;;;;;4996304;28;20436;-66
2022/05/08 12:08:48;;;;;;;10.43;2.15;;;16.00;99.90;;;;;;5013661;28;20038;-66
2022/05/08 12:11:33;;;;;;;8.68;2.03;;;16.10;99.90;;;;;;5012228;28;20086;-66
2022/05/08 12:13:59;;;;;;;6.65;1.63;;;16.10;99.90;;;;;;5013257;28;20440;-66
2022/05/08 12:16:26;;;;;;;5.80;1.73;;;15.90;99.90;;;;;;4996516;28;20400;-66
2022/05/08 12:19:11;;;;;;;8.10;1.92;;;16.20;99.90;;;;;;5013352;28;20497;-66
2022/05/08 12:21:40;;;;;;;7.32;1.90;;;16.10;99.90;;;;;;4995869;28;20041;-66
2022/05/08 12:24:13;;;;;;;7.20;1.75;;;16.10;99.90;;;;;;4995979;28;20400;-66
2022/05/08 12:26:39;;;;;;;9.10;2.58;;;16.20;99.90;;;;;;5013497;28;20073;-66
2022/05/08 12:29:07;;;;;;;8.65;1.83;;;16.20;99.90;;;;;;4995967;28;20124;-66
2022/05/08 12:31:33;;;;;;;5.80;1.90;;;16.30;99.90;;;;;;4995862;28;20042;-66
2022/05/08 12:33:59;;;;;;;11.63;2.13;;;16.10;99.90;;;;;;5013075;28;20065;-66
2022/05/08 12:36:25;;;;;;;12.25;2.72;;;16.20;99.90;;;;;;5012571;28;20480;-66
2022/05/08 12:38:53;;;;;;;9.82;2.25;;;16.30;99.90;;;;;;5011931;28;20049;-66
2022/05/08 12:41:19;;;;;;;10.23;2.42;;;16.20;99.90;;;;;;5012832;28;20092;-66
2022/05/08 12:43:44;;;;;;;10.32;2.67;;;16.20;99.90;;;;;;4995347;28;20050;-66
2022/05/08 12:46:10;;;;;;;8.38;1.60;;;16.30;99.90;;;;;;5024797;28;20049;-66
2022/05/08 12:48:36;;;;;;;10.02;1.55;;;16.40;99.90;;;;;;5032752;28;20068;-66
2022/05/08 12:51:02;;;;;;;7.32;2.25;;;16.30;99.90;;;;;;5015511;28;20046;-66
2022/05/08 12:53:28;;;;;;;7.50;1.75;;;16.20;99.90;;;;;;5015124;28;20542;-66
2022/05/08 12:55:54;;;;;;;7.72;2.30;;;16.30;99.90;;;;;;5028893;28;20490;-66
2022/05/08 13:01:04;;;;;;;13.43;2.20;;;16.40;99.90;;;;;;5012429;28;20412;-65
2022/05/08 13:03:29;;;;;;;9.80;2.22;;;16.50;99.90;;;;;;4994849;28;20531;-65
2022/05/08 13:05:55;;;;;;;13.18;2.60;;;16.20;99.90;;;;;;5001182;28;20066;-65
2022/05/08 13:08:20;;;;;;;9.80;2.10;;;16.20;99.90;;;;;;5009298;28;20034;-65
2022/05/08 13:10:46;;;;;;;9.82;1.65;;;16.20;99.90;;;;;;4995471;28;20069;-65
2022/05/08 13:13:13;;;;;;;10.23;1.48;;;16.20;99.90;;;;;;5012988;28;20496;-65
2022/05/08 13:15:39;;;;;;;7.00;1.88;;;16.40;99.90;;;;;;5012734;28;20065;-65
2022/05/08 13:18:04;;;;;;;12.88;1.92;;;16.20;99.90;;;;;;5013194;28;20133;-65
2022/05/08 13:20:30;;;;;;;8.13;1.92;;;16.40;99.90;;;;;;5013101;28;20476;-65
2022/05/08 13:22:55;;;;;;;10.23;1.98;;;16.40;99.90;;;;;;5012829;28;20038;-65
2022/05/08 13:25:21;;;;;;;11.95;2.15;;;16.60;99.90;;;;;;4995199;28;20049;-65
2022/05/08 13:27:47;;;;;;;5.68;1.60;;;16.50;99.90;;;;;;5011727;28;20042;-65
2022/05/08 13:30:12;;;;;;;9.07;2.05;;;16.50;99.90;;;;;;5012991;28;20050;-65
2022/05/08 13:32:39;;;;;;;12.07;2.08;;;16.60;99.90;;;;;;4992276;28;20407;-65